createdAt,value
2023-05-22T00:00:21.058Z,95203.27
2023-05-22T00:01:49.555Z,95203.20
2023-05-22T00:02:57.505Z,95203.19
2023-05-22T00:04:04.783Z,95205.92
2023-05-22T00:05:12.032Z,95202.98
2023-05-22T00:06:18.744Z,95203.89
2023-05-22T00:07:24.978Z,95202.77
2023-05-22T00:08:31.132Z,95196.90
2023-05-22T00:09:36.992Z,95197.41
2023-05-22T00:10:43.573Z,95196.71
2023-05-22T00:11:49.587Z,95200.10
2023-05-22T00:12:55.721Z,95197.17
2023-05-22T00:14:09.671Z,95195.62
2023-05-22T00:15:15.622Z,95194.91
2023-05-22T00:16:22.466Z,95194.33
2023-05-22T00:17:30.844Z,95194.61
2023-05-22T00:18:36.947Z,95193.45
2023-05-22T00:19:43.318Z,95196.09
2023-05-22T00:20:50.479Z,95197.15
2023-05-22T00:21:56.402Z,95199.19
2023-05-22T00:23:03.889Z,95199.60
2023-05-22T00:24:11.075Z,95197.40
2023-05-22T00:25:20.512Z,95199.77
2023-05-22T00:26:26.518Z,95202.86
2023-05-22T00:27:33.064Z,95201.60
2023-05-22T00:28:39.265Z,95203.94
2023-05-22T00:29:45.273Z,95202.33
2023-05-22T00:30:52.918Z,95201.13
2023-05-22T00:31:59.290Z,95202.20
2023-05-22T00:33:05.399Z,95204.68
2023-05-22T00:34:11.583Z,95203.52
2023-05-22T00:35:18.341Z,95207.60
2023-05-22T00:36:24.944Z,95205.73
2023-05-22T00:37:31.495Z,95198.77
2023-05-22T00:38:38.466Z,95199.66
2023-05-22T00:39:44.687Z,95198.77
2023-05-22T00:40:50.978Z,95200.52
2023-05-22T00:41:57.151Z,95200.54
2023-05-22T00:43:09.684Z,95201.40
2023-05-22T00:44:17.222Z,95204.40
2023-05-22T00:45:24.700Z,95203.40
2023-05-22T00:46:31.697Z,95202.20
2023-05-22T00:47:38.196Z,95201.39
2023-05-22T00:48:44.152Z,95201.65
2023-05-22T00:49:50.237Z,95196.29
2023-05-22T00:50:59.537Z,95202.56
2023-05-22T00:52:08.577Z,95199.31
2023-05-22T00:53:16.067Z,95198.88
2023-05-22T00:54:22.777Z,95202.35
2023-05-22T00:55:28.873Z,95202.60
2023-05-22T00:56:36.121Z,95198.16
2023-05-22T00:57:43.632Z,95202.01
2023-05-22T00:58:51.008Z,95200.53
2023-05-22T00:59:56.921Z,95203.30
2023-05-22T01:01:02.807Z,95200.49
2023-05-22T01:02:09.075Z,95201.75
2023-05-22T01:03:16.130Z,95201.31
2023-05-22T01:04:22.172Z,95206.77
2023-05-22T01:05:28.211Z,95204.59
2023-05-22T01:06:34.062Z,95204.83
2023-05-22T01:07:41.341Z,95203.43
2023-05-22T01:08:47.371Z,95197.27
2023-05-22T01:09:53.509Z,95201.02
2023-05-22T01:11:05.090Z,95203.30
2023-05-22T01:12:27.646Z,95200.69
2023-05-22T01:13:45.093Z,95200.58
2023-05-22T01:15:00.307Z,95201.35
2023-05-22T01:16:22.692Z,95202.98
2023-05-22T01:17:42.029Z,95196.83
2023-05-22T01:18:57.094Z,95198.89
2023-05-22T01:20:14.458Z,95199.06
2023-05-22T01:21:26.341Z,95196.90
2023-05-22T01:23:02.904Z,95195.20
2023-05-22T01:24:52.070Z,95198.56
2023-05-22T01:26:19.620Z,95193.04
2023-05-22T01:27:39.854Z,95195.55
2023-05-22T01:29:14.744Z,95196.54
2023-05-22T01:30:39.488Z,95196.27
2023-05-22T01:31:49.130Z,95191.91
2023-05-22T01:32:58.586Z,95194.37
2023-05-22T01:34:07.877Z,95194.44
2023-05-22T01:35:18.991Z,95194.28
2023-05-22T01:36:31.063Z,95194.71
2023-05-22T01:37:39.066Z,95197.02
2023-05-22T01:38:46.735Z,95197.95
2023-05-22T01:39:54.957Z,95197.11
2023-05-22T01:41:01.811Z,95196.16
2023-05-22T01:42:09.054Z,95198.10
2023-05-22T01:43:16.246Z,95199.09
2023-05-22T01:44:23.600Z,95194.38
2023-05-22T01:45:31.797Z,95194.58
2023-05-22T01:46:37.927Z,95194.33
2023-05-22T01:47:45.331Z,95192.31
2023-05-22T01:48:51.258Z,95192.84
2023-05-22T01:49:57.197Z,95188.95
2023-05-22T01:51:08.593Z,95185.96
2023-05-22T01:52:24.326Z,95184.37
2023-05-22T01:53:39.965Z,95182.33
2023-05-22T01:54:52.899Z,95184.89
2023-05-22T01:56:06.950Z,95181.59
2023-05-22T01:57:22.069Z,95179.35
2023-05-22T01:58:40.152Z,95183.04
2023-05-22T01:59:49.900Z,95181.26
2023-05-22T02:01:01.093Z,95178.25
2023-05-22T02:02:11.077Z,95177.24
2023-05-22T02:03:23.067Z,95177.20
2023-05-22T02:04:33.057Z,95177.42
2023-05-22T02:05:41.625Z,95180.17
2023-05-22T02:06:48.935Z,95179.27
2023-05-22T02:07:58.505Z,95176.08
2023-05-22T02:09:05.817Z,95180.33
2023-05-22T02:10:14.967Z,95179.66
2023-05-22T02:11:19.849Z,95179.47
2023-05-22T02:12:27.366Z,95180.83
2023-05-22T02:13:38.107Z,95183.92
2023-05-22T02:14:44.774Z,95183.53
2023-05-22T02:15:53.235Z,95182.21
2023-05-22T02:17:02.434Z,95183.25
2023-05-22T02:18:14.678Z,95180.80
2023-05-22T02:19:22.451Z,95178.48
2023-05-22T02:20:29.418Z,95178.92
2023-05-22T02:21:37.342Z,95178.40
2023-05-22T02:22:46.205Z,95178.02
2023-05-22T02:23:52.102Z,95177.98
2023-05-22T02:24:58.139Z,95177.84
2023-05-22T02:26:05.951Z,95180.95
2023-05-22T02:27:12.137Z,95181.30
2023-05-22T02:28:18.555Z,95182.06
2023-05-22T02:29:25.344Z,95180.30
2023-05-22T02:30:31.319Z,95180.90
2023-05-22T02:31:37.715Z,95184.65
2023-05-22T02:32:44.535Z,95184.73
2023-05-22T02:33:52.455Z,95189.88
2023-05-22T02:34:59.493Z,95184.10
2023-05-22T02:36:12.501Z,95186.50
2023-05-22T02:37:18.857Z,95187.81
2023-05-22T02:38:25.064Z,95185.94
2023-05-22T02:39:31.275Z,95188.02
2023-05-22T02:40:38.443Z,95188.77
2023-05-22T02:41:45.641Z,95186.81
2023-05-22T02:42:52.613Z,95186.67
2023-05-22T02:43:59.664Z,95184.08
2023-05-22T02:45:07.504Z,95185.79
2023-05-22T02:46:14.682Z,95182.27
2023-05-22T02:47:20.783Z,95183.52
2023-05-22T02:48:29.798Z,95185.10
2023-05-22T02:49:36.058Z,95183.35
2023-05-22T02:50:44.660Z,95185.13
2023-05-22T02:51:50.704Z,95185.72
2023-05-22T02:52:56.576Z,95187.37
2023-05-22T02:54:04.555Z,95182.66
2023-05-22T02:55:12.583Z,95185.22
2023-05-22T02:56:20.837Z,95183.99
2023-05-22T02:57:27.212Z,95185.55
2023-05-22T02:58:33.264Z,95185.59
2023-05-22T02:59:39.298Z,95185.50
2023-05-22T03:00:45.380Z,95184.17
2023-05-22T03:01:54.851Z,95183.50
2023-05-22T03:03:01.382Z,95189.05
2023-05-22T03:04:09.043Z,95186.09
2023-05-22T03:05:18.270Z,95186.52
2023-05-22T03:06:25.515Z,95186.28
2023-05-22T03:07:31.871Z,95188.62
2023-05-22T03:08:42.154Z,95190.89
2023-05-22T03:09:48.391Z,95191.91
2023-05-22T03:10:54.538Z,95188.67
2023-05-22T03:12:00.916Z,95193.73
2023-05-22T03:13:07.349Z,95190.52
2023-05-22T03:14:13.434Z,95191.35
2023-05-22T03:15:19.740Z,95194.00
2023-05-22T03:16:26.449Z,95194.02
2023-05-22T03:17:33.758Z,95195.61
2023-05-22T03:18:39.979Z,95194.45
2023-05-22T03:19:45.869Z,95192.81
2023-05-22T03:20:52.612Z,95197.16
2023-05-22T03:21:58.557Z,95191.98
2023-05-22T03:23:06.888Z,95187.98
2023-05-22T03:24:13.179Z,95191.80
2023-05-22T03:25:22.734Z,95195.60
2023-05-22T03:26:29.024Z,95191.09
2023-05-22T03:27:35.741Z,95189.12
2023-05-22T03:28:41.914Z,95191.19
2023-05-22T03:29:47.835Z,95189.08
2023-05-22T03:30:55.803Z,95192.24
2023-05-22T03:32:06.136Z,95189.73
2023-05-22T03:33:12.091Z,95189.90
2023-05-22T03:34:18.370Z,95186.43
2023-05-22T03:35:26.517Z,95189.56
2023-05-22T03:36:35.516Z,95188.98
2023-05-22T03:37:41.409Z,95190.17
2023-05-22T03:38:47.823Z,95191.30
2023-05-22T03:39:54.070Z,95193.48
2023-05-22T03:41:00.359Z,95193.32
2023-05-22T03:42:07.824Z,95193.54
2023-05-22T03:43:15.176Z,95194.04
2023-05-22T03:44:21.286Z,95194.05
2023-05-22T03:45:27.030Z,95192.77
2023-05-22T03:46:33.083Z,95196.02
2023-05-22T03:47:39.383Z,95195.17
2023-05-22T03:48:45.759Z,95197.88
2023-05-22T03:49:51.858Z,95199.08
2023-05-22T03:50:57.788Z,95198.71
2023-05-22T03:52:04.518Z,95196.02
2023-05-22T03:53:10.769Z,95197.10
2023-05-22T03:54:16.950Z,95191.88
2023-05-22T03:55:23.786Z,95193.48
2023-05-22T03:56:29.664Z,95194.48
2023-05-22T03:57:35.985Z,95191.19
2023-05-22T03:58:42.347Z,95192.81
2023-05-22T03:59:48.621Z,95192.55
2023-05-22T04:00:59.815Z,95191.27
2023-05-22T04:02:07.442Z,95193.17
2023-05-22T04:03:15.569Z,95190.73
2023-05-22T04:04:34.218Z,95190.45
2023-05-22T04:05:40.883Z,95192.45
2023-05-22T04:06:47.554Z,95192.50
2023-05-22T04:07:53.987Z,95193.90
2023-05-22T04:09:01.674Z,95192.56
2023-05-22T04:10:10.551Z,95195.11
2023-05-22T04:11:16.446Z,95196.95
2023-05-22T04:12:22.922Z,95199.27
2023-05-22T04:13:31.565Z,95195.73
2023-05-22T04:14:37.872Z,95201.96
2023-05-22T04:15:46.839Z,95199.23
2023-05-22T04:16:53.166Z,95200.33
2023-05-22T04:18:00.276Z,95195.17
2023-05-22T04:19:09.789Z,95200.54
2023-05-22T04:20:18.424Z,95199.26
2023-05-22T04:21:25.134Z,95204.10
2023-05-22T04:22:31.382Z,95203.30
2023-05-22T04:23:38.894Z,95202.84
2023-05-22T04:24:49.347Z,95203.33
2023-05-22T04:25:55.880Z,95203.55
2023-05-22T04:27:02.894Z,95203.95
2023-05-22T04:28:10.180Z,95205.19
2023-05-22T04:29:25.285Z,95202.45
2023-05-22T04:30:34.767Z,95205.80
2023-05-22T04:31:41.199Z,95202.23
2023-05-22T04:32:47.655Z,95203.61
2023-05-22T04:33:57.624Z,95206.36
2023-05-22T04:35:05.003Z,95206.54
2023-05-22T04:36:12.629Z,95208.14
2023-05-22T04:37:21.426Z,95207.64
2023-05-22T04:38:27.538Z,95209.50
2023-05-22T04:39:34.372Z,95209.83
2023-05-22T04:40:42.085Z,95210.23
2023-05-22T04:41:50.063Z,95211.54
2023-05-22T04:43:00.079Z,95206.80
2023-05-22T04:44:07.433Z,95201.91
2023-05-22T04:45:15.169Z,95206.23
2023-05-22T04:46:22.018Z,95206.73
2023-05-22T04:47:29.084Z,95207.88
2023-05-22T04:48:38.175Z,95205.73
2023-05-22T04:49:46.002Z,95206.73
2023-05-22T04:50:55.901Z,95207.15
2023-05-22T04:52:06.219Z,95205.90
2023-05-22T04:53:16.750Z,95207.02
2023-05-22T04:54:22.959Z,95204.02
2023-05-22T04:55:28.997Z,95203.48
2023-05-22T04:56:37.161Z,95200.73
2023-05-22T04:57:47.658Z,95204.86
2023-05-22T04:58:53.983Z,95199.80
2023-05-22T05:00:00.406Z,95197.35
2023-05-22T05:01:06.913Z,95197.60
2023-05-22T05:02:13.448Z,95199.89
2023-05-22T05:03:19.722Z,95201.09
2023-05-22T05:04:26.377Z,95199.95
2023-05-22T05:05:32.357Z,95198.67
2023-05-22T05:06:38.821Z,95195.95
2023-05-22T05:07:49.851Z,95199.02
2023-05-22T05:08:57.601Z,95195.50
2023-05-22T05:10:04.299Z,95199.90
2023-05-22T05:11:10.290Z,95194.80
2023-05-22T05:12:17.256Z,95197.39
2023-05-22T05:13:23.618Z,95198.00
2023-05-22T05:14:35.640Z,95200.19
2023-05-22T05:15:41.444Z,95195.35
2023-05-22T05:16:48.015Z,95197.54
2023-05-22T05:17:54.569Z,95198.31
2023-05-22T05:19:01.541Z,95197.84
2023-05-22T05:20:15.352Z,95198.29
2023-05-22T05:21:22.285Z,95195.73
2023-05-22T05:22:29.602Z,95196.89
2023-05-22T05:23:36.843Z,95197.78
2023-05-22T05:24:43.715Z,95195.14
2023-05-22T05:25:49.656Z,95193.66
2023-05-22T05:26:56.111Z,95195.16
2023-05-22T05:28:02.114Z,95193.81
2023-05-22T05:29:08.923Z,95194.90
2023-05-22T05:30:16.454Z,95193.52
2023-05-22T05:31:27.027Z,95198.05
2023-05-22T05:32:33.758Z,95194.71
2023-05-22T05:33:40.070Z,95192.21
2023-05-22T05:34:46.838Z,95193.21
2023-05-22T05:35:52.950Z,95192.16
2023-05-22T05:37:00.573Z,95196.04
2023-05-22T05:38:06.838Z,95191.67
2023-05-22T05:39:13.409Z,95189.67
2023-05-22T05:40:20.973Z,95191.23
2023-05-22T05:41:27.115Z,95192.37
2023-05-22T05:42:32.861Z,95191.42
2023-05-22T05:43:38.906Z,95193.85
2023-05-22T05:44:44.989Z,95192.48
2023-05-22T05:45:51.194Z,95192.16
2023-05-22T05:46:57.591Z,95191.58
2023-05-22T05:48:04.303Z,95189.97
2023-05-22T05:49:11.261Z,95188.90
2023-05-22T05:50:17.305Z,95188.63
2023-05-22T05:51:23.358Z,95188.59
2023-05-22T05:52:33.082Z,95190.48
2023-05-22T05:53:41.205Z,95189.73
2023-05-22T05:54:48.285Z,95189.80
2023-05-22T05:55:54.588Z,95191.33
2023-05-22T05:57:00.964Z,95193.18
2023-05-22T05:58:07.647Z,95193.66
2023-05-22T05:59:13.786Z,95192.01
2023-05-22T06:00:23.332Z,95197.46
2023-05-22T06:01:31.531Z,95197.89
2023-05-22T06:02:39.487Z,95198.40
2023-05-22T06:03:47.044Z,95201.61
2023-05-22T06:04:54.068Z,95201.06
2023-05-22T06:06:00.304Z,95202.83
2023-05-22T06:07:07.226Z,95202.81
2023-05-22T06:08:13.887Z,95200.89
2023-05-22T06:09:21.044Z,95203.52
2023-05-22T06:10:27.200Z,95205.80
2023-05-22T06:11:33.225Z,95200.23
2023-05-22T06:12:39.043Z,95201.59
2023-05-22T06:13:44.898Z,95202.11
2023-05-22T06:14:52.509Z,95197.30
2023-05-22T06:16:01.694Z,95195.05
2023-05-22T06:17:11.671Z,95196.75
2023-05-22T06:18:18.083Z,95202.91
2023-05-22T06:19:24.420Z,95202.18
2023-05-22T06:20:33.489Z,95199.63
2023-05-22T06:21:39.968Z,95198.98
2023-05-22T06:22:46.710Z,95198.98
2023-05-22T06:23:53.057Z,95198.39
2023-05-22T06:24:59.347Z,95197.82
2023-05-22T06:26:05.914Z,95197.15
2023-05-22T06:27:12.696Z,95196.98
2023-05-22T06:28:18.835Z,95196.10
2023-05-22T06:29:25.882Z,95196.89
2023-05-22T06:31:45.546Z,95198.42
2023-05-22T06:32:52.911Z,95194.48
2023-05-22T06:34:00.523Z,95192.83
2023-05-22T06:35:08.981Z,95192.77
2023-05-22T06:36:17.823Z,95190.20
2023-05-22T06:37:24.022Z,95191.09
2023-05-22T06:38:30.164Z,95189.12
2023-05-22T06:39:36.424Z,95190.74
2023-05-22T06:40:42.414Z,95189.27
2023-05-22T06:41:48.524Z,95186.98
2023-05-22T06:42:55.139Z,95185.57
2023-05-22T06:44:02.160Z,95190.09
2023-05-22T06:45:11.619Z,95185.11
2023-05-22T06:46:17.862Z,95185.79
2023-05-22T06:47:24.643Z,95182.34
2023-05-22T06:48:36.308Z,95182.48
2023-05-22T06:49:42.735Z,95185.24
2023-05-22T06:50:48.915Z,95181.52
2023-05-22T06:51:57.454Z,95180.11
2023-05-22T06:53:04.101Z,95181.17
2023-05-22T06:54:12.429Z,95178.25
2023-05-22T06:55:18.609Z,95177.58
2023-05-22T06:56:25.425Z,95178.36
2023-05-22T06:57:31.974Z,95173.23
2023-05-22T06:58:39.353Z,95177.64
2023-05-22T06:59:46.000Z,95176.66
2023-05-22T07:00:52.475Z,95172.99
2023-05-22T07:01:59.023Z,95175.69
2023-05-22T07:03:07.357Z,95176.25
2023-05-22T07:04:14.416Z,95174.95
2023-05-22T07:05:21.036Z,95171.05
2023-05-22T07:06:28.742Z,95171.17
2023-05-22T07:07:35.995Z,95169.06
2023-05-22T07:08:42.003Z,95168.23
2023-05-22T07:09:49.220Z,95168.13
2023-05-22T07:10:55.230Z,95168.66
2023-05-22T07:12:01.474Z,95164.68
2023-05-22T07:13:07.464Z,95162.04
2023-05-22T07:14:14.339Z,95166.67
2023-05-22T07:15:23.506Z,95165.86
2023-05-22T07:16:31.562Z,95161.84
2023-05-22T07:17:38.432Z,95166.73
2023-05-22T07:18:46.305Z,95162.13
2023-05-22T07:19:52.145Z,95163.05
2023-05-22T07:20:59.330Z,95167.52
2023-05-22T07:22:05.713Z,95172.02
2023-05-22T07:23:12.767Z,95172.33
2023-05-22T07:24:18.602Z,95173.98
2023-05-22T07:25:25.041Z,95169.17
2023-05-22T07:26:31.600Z,95171.39
2023-05-22T07:27:40.775Z,95174.19
2023-05-22T07:28:46.905Z,95169.76
2023-05-22T07:29:53.413Z,95164.67
2023-05-22T07:31:01.918Z,95167.12
2023-05-22T07:32:08.624Z,95166.94
2023-05-22T07:33:14.922Z,95165.41
2023-05-22T07:34:22.881Z,95167.58
2023-05-22T07:35:28.782Z,95162.50
2023-05-22T07:36:35.361Z,95164.20
2023-05-22T07:37:42.576Z,95163.44
2023-05-22T07:38:49.205Z,95164.17
2023-05-22T07:39:55.694Z,95165.67
2023-05-22T07:41:03.368Z,95165.03
2023-05-22T07:42:10.026Z,95169.30
2023-05-22T07:43:16.275Z,95163.84
2023-05-22T07:44:22.719Z,95167.35
2023-05-22T07:45:29.619Z,95165.40
2023-05-22T07:46:39.538Z,95164.04
2023-05-22T07:47:45.746Z,95164.36
2023-05-22T07:48:52.410Z,95160.35
2023-05-22T07:49:58.921Z,95161.86
2023-05-22T07:51:06.048Z,95160.12
2023-05-22T07:52:12.300Z,95165.52
2023-05-22T07:53:18.436Z,95155.98
2023-05-22T07:54:24.773Z,95161.25
2023-05-22T07:55:31.187Z,95159.22
2023-05-22T07:56:41.354Z,95158.42
2023-05-22T07:57:47.486Z,95159.14
2023-05-22T07:58:56.209Z,95157.21
2023-05-22T08:00:06.910Z,95162.67
2023-05-22T08:01:13.087Z,95155.34
2023-05-22T08:02:19.546Z,95156.23
2023-05-22T08:03:26.239Z,95157.38
2023-05-22T08:04:33.824Z,95158.00
2023-05-22T08:05:40.120Z,95157.49
2023-05-22T08:06:46.564Z,95155.48
2023-05-22T08:07:53.254Z,95155.04
2023-05-22T08:09:00.149Z,95154.64
2023-05-22T08:10:15.085Z,95154.51
2023-05-22T08:11:21.637Z,95162.17
2023-05-22T08:12:27.595Z,95156.46
2023-05-22T08:13:34.186Z,95154.88
2023-05-22T08:14:40.319Z,95157.60
2023-05-22T08:15:46.757Z,95157.60
2023-05-22T08:16:52.631Z,95155.79
2023-05-22T08:17:59.640Z,95153.70
2023-05-22T08:19:09.735Z,95151.08
2023-05-22T08:20:17.121Z,95157.44
2023-05-22T08:21:23.509Z,95154.41
2023-05-22T08:22:34.916Z,95150.66
2023-05-22T08:23:41.577Z,95156.09
2023-05-22T08:24:47.586Z,95144.30
2023-05-22T08:25:53.657Z,95147.59
2023-05-22T08:27:02.188Z,95148.80
2023-05-22T08:28:08.449Z,95147.64
2023-05-22T08:29:14.718Z,95144.14
2023-05-22T08:30:21.277Z,95146.00
2023-05-22T08:31:31.297Z,95145.60
2023-05-22T08:32:38.118Z,95146.92
2023-05-22T08:33:45.053Z,95146.36
2023-05-22T08:34:51.434Z,95142.73
2023-05-22T08:35:57.779Z,95144.98
2023-05-22T08:37:06.073Z,95146.50
2023-05-22T08:38:12.061Z,95144.88
2023-05-22T08:39:21.743Z,95137.98
2023-05-22T08:40:35.579Z,95137.98
2023-05-22T08:41:43.937Z,95132.52
2023-05-22T08:42:54.666Z,95137.30
2023-05-22T08:44:01.238Z,95136.05
2023-05-22T08:45:10.353Z,95136.83
2023-05-22T08:46:28.090Z,95136.11
2023-05-22T08:47:37.666Z,95135.70
2023-05-22T08:48:48.022Z,95135.54
2023-05-22T08:49:59.095Z,95132.73
2023-05-22T08:51:08.207Z,95134.34
2023-05-22T08:52:19.251Z,95136.09
2023-05-22T08:53:28.288Z,95135.30
2023-05-22T08:54:37.022Z,95134.10
2023-05-22T08:55:43.323Z,95127.98
2023-05-22T08:56:56.666Z,95129.55
2023-05-22T08:58:06.362Z,95120.03
2023-05-22T08:59:13.919Z,95122.66
2023-05-22T09:00:23.351Z,95121.48
2023-05-22T09:01:33.489Z,95116.25
2023-05-22T09:02:42.861Z,95118.02
2023-05-22T09:03:52.278Z,95119.06
2023-05-22T09:04:58.939Z,95118.42
2023-05-22T09:06:11.001Z,95117.24
2023-05-22T09:07:17.196Z,95117.20
2023-05-22T09:08:25.203Z,95118.17
2023-05-22T09:09:31.413Z,95113.01
2023-05-22T09:10:37.987Z,95115.32
2023-05-22T09:11:44.290Z,95115.95
2023-05-22T09:13:04.529Z,95116.11
2023-05-22T09:14:11.869Z,95115.70
2023-05-22T09:15:20.988Z,95112.52
2023-05-22T09:16:27.458Z,95112.53
2023-05-22T09:17:34.041Z,95110.30
2023-05-22T09:18:43.034Z,95110.38
2023-05-22T09:19:47.488Z,95104.59
2023-05-22T09:20:53.247Z,95108.87
2023-05-22T09:22:04.473Z,95106.34
2023-05-22T09:23:18.372Z,95107.04
2023-05-22T09:24:24.367Z,95111.17
2023-05-22T09:25:32.063Z,95107.58
2023-05-22T09:26:39.985Z,95103.27
2023-05-22T09:27:49.637Z,95100.05
2023-05-22T09:28:55.535Z,95097.67
2023-05-22T09:30:01.425Z,95097.92
2023-05-22T09:31:09.702Z,95098.39
2023-05-22T09:32:16.451Z,95096.89
2023-05-22T09:33:23.238Z,95098.79
2023-05-22T09:34:34.078Z,95097.98
2023-05-22T09:35:42.669Z,95102.27
2023-05-22T09:36:50.134Z,95100.59
2023-05-22T09:37:57.961Z,95101.05
2023-05-22T09:39:06.130Z,95100.56
2023-05-22T09:40:14.294Z,95098.35
2023-05-22T09:41:24.675Z,95094.75
2023-05-22T09:42:31.886Z,95090.50
2023-05-22T09:43:37.852Z,95085.76
2023-05-22T09:44:47.874Z,95082.52
2023-05-22T09:45:58.260Z,95074.95
2023-05-22T09:47:06.389Z,95073.85
2023-05-22T09:48:14.150Z,95075.91
2023-05-22T09:49:20.880Z,95077.25
2023-05-22T09:50:27.335Z,95074.15
2023-05-22T09:51:37.512Z,95071.60
2023-05-22T09:52:48.133Z,95074.96
2023-05-22T09:54:03.516Z,95076.95
2023-05-22T09:55:10.796Z,95078.88
2023-05-22T09:56:37.822Z,95077.45
2023-05-22T09:57:52.221Z,95082.86
2023-05-22T09:58:59.495Z,95076.89
2023-05-22T10:00:14.418Z,95079.77
2023-05-22T10:01:22.375Z,95081.11
2023-05-22T10:02:32.811Z,95076.63
2023-05-22T10:03:40.976Z,95073.73
2023-05-22T10:04:51.077Z,95070.45
2023-05-22T10:05:58.602Z,95077.15
2023-05-22T10:07:06.989Z,95074.04
2023-05-22T10:08:21.469Z,95071.58
2023-05-22T10:09:36.095Z,95075.00
2023-05-22T10:10:43.482Z,95068.27
2023-05-22T10:11:52.487Z,95069.63
2023-05-22T10:13:05.033Z,95067.66
2023-05-22T10:14:11.876Z,95066.17
2023-05-22T10:15:21.478Z,95064.10
2023-05-22T10:16:31.456Z,95061.77
2023-05-22T10:17:38.259Z,95063.73
2023-05-22T10:18:49.105Z,95061.77
2023-05-22T10:19:57.637Z,95061.80
2023-05-22T10:21:04.778Z,95063.58
2023-05-22T10:22:11.505Z,95062.94
2023-05-22T10:23:19.408Z,95060.76
2023-05-22T10:24:26.058Z,95058.80
2023-05-22T10:25:32.546Z,95055.17
2023-05-22T10:26:39.517Z,95057.29
2023-05-22T10:27:46.178Z,95055.29
2023-05-22T10:29:00.618Z,95056.13
2023-05-22T10:30:21.129Z,95055.31
2023-05-22T10:31:38.904Z,95054.04
2023-05-22T10:32:52.478Z,95056.68
2023-05-22T10:34:05.668Z,95055.87
2023-05-22T10:35:19.997Z,95053.96
2023-05-22T10:36:38.443Z,95059.78
2023-05-22T10:37:51.196Z,95057.92
2023-05-22T10:39:15.156Z,95054.28
2023-05-22T10:40:29.405Z,95043.30
2023-05-22T10:41:37.374Z,95046.95
2023-05-22T10:42:46.693Z,95041.79
2023-05-22T10:43:58.602Z,95047.61
2023-05-22T10:45:07.581Z,95043.21
2023-05-22T10:46:15.522Z,95041.20
2023-05-22T10:47:20.766Z,95044.56
2023-05-22T10:48:27.317Z,95038.06
2023-05-22T10:49:34.300Z,95039.02
2023-05-22T10:50:53.270Z,95037.59
2023-05-22T10:52:00.241Z,95042.30
2023-05-22T10:53:23.374Z,95035.52
2023-05-22T10:54:42.473Z,95034.36
2023-05-22T10:55:54.796Z,95033.71
2023-05-22T10:57:14.471Z,95028.80
2023-05-22T10:58:29.025Z,95026.98
2023-05-22T10:59:38.038Z,95027.71
2023-05-22T11:00:44.484Z,95030.36
2023-05-22T11:02:05.639Z,95032.77
2023-05-22T11:03:18.305Z,95035.57
2023-05-22T11:04:28.762Z,95033.13
2023-05-22T11:05:40.449Z,95033.14
2023-05-22T11:06:49.277Z,95033.58
2023-05-22T11:08:11.059Z,95032.16
2023-05-22T11:09:29.218Z,95031.33
2023-05-22T11:10:57.705Z,95032.67
2023-05-22T11:12:28.011Z,95028.70
2023-05-22T11:13:34.491Z,95025.85
2023-05-22T11:14:43.354Z,95025.50
2023-05-22T11:15:50.248Z,95021.14
2023-05-22T11:17:01.919Z,95020.59
2023-05-22T11:18:08.766Z,95018.74
2023-05-22T11:19:24.099Z,95020.37
2023-05-22T11:20:40.086Z,95019.94
2023-05-22T11:21:49.008Z,95019.58
2023-05-22T11:23:05.624Z,95021.13
2023-05-22T11:24:12.264Z,95012.52
2023-05-22T11:25:20.096Z,95011.77
2023-05-22T11:26:28.079Z,95007.30
2023-05-22T11:27:34.688Z,95007.92
2023-05-22T11:28:44.105Z,95005.86
2023-05-22T11:29:51.576Z,95002.55
2023-05-22T11:30:59.926Z,95001.59
2023-05-22T11:32:08.731Z,95004.03
2023-05-22T11:33:13.489Z,94995.63
2023-05-22T11:34:20.871Z,94997.67
2023-05-22T11:35:32.787Z,95006.72
2023-05-22T11:36:38.986Z,95000.75
2023-05-22T11:37:46.466Z,94999.48
2023-05-22T11:38:57.846Z,94997.91
2023-05-22T11:40:06.120Z,95001.83
2023-05-22T11:41:13.229Z,95000.48
2023-05-22T11:42:20.778Z,95002.85
2023-05-22T11:43:34.850Z,94998.49
2023-05-22T11:44:42.605Z,95000.26
2023-05-22T11:45:48.850Z,95005.61
2023-05-22T11:46:55.745Z,94998.23
2023-05-22T11:48:02.180Z,94992.97
2023-05-22T11:49:13.541Z,94999.79
2023-05-22T11:50:33.512Z,94994.85
2023-05-22T11:51:45.867Z,94987.64
2023-05-22T11:52:54.211Z,94989.67
2023-05-22T11:54:00.695Z,94991.30
2023-05-22T11:55:12.245Z,94990.39
2023-05-22T11:56:22.845Z,94978.22
2023-05-22T11:57:29.258Z,94989.92
2023-05-22T11:58:37.084Z,94988.67
2023-05-22T11:59:47.335Z,94986.98
2023-05-22T12:00:58.239Z,94988.34
2023-05-22T12:02:04.938Z,94988.59
2023-05-22T12:03:12.119Z,94989.29
2023-05-22T12:04:19.154Z,94987.73
2023-05-22T12:05:25.178Z,94990.07
2023-05-22T12:06:34.539Z,94987.07
2023-05-22T12:07:40.946Z,94993.04
2023-05-22T12:08:47.233Z,94983.11
2023-05-22T12:09:56.250Z,94987.67
2023-05-22T12:11:07.523Z,94983.58
2023-05-22T12:12:15.629Z,94980.99
2023-05-22T12:13:28.917Z,94979.52
2023-05-22T12:14:34.961Z,94976.61
2023-05-22T12:15:41.457Z,94978.98
2023-05-22T12:16:53.467Z,94972.95
2023-05-22T12:18:01.693Z,94974.53
2023-05-22T12:19:09.523Z,94969.95
2023-05-22T12:20:16.218Z,94967.30
2023-05-22T12:21:22.844Z,94964.56
2023-05-22T12:22:30.031Z,94968.50
2023-05-22T12:23:35.855Z,94972.75
2023-05-22T12:24:46.603Z,94972.91
2023-05-22T12:26:01.165Z,94970.50
2023-05-22T12:27:15.326Z,94965.41
2023-05-22T12:28:21.445Z,94969.70
2023-05-22T12:29:27.766Z,94959.32
2023-05-22T12:30:43.045Z,94964.64
2023-05-22T12:31:50.592Z,94959.46
2023-05-22T12:32:59.181Z,94956.59
2023-05-22T12:34:08.606Z,94954.91
2023-05-22T12:35:19.324Z,94962.73
2023-05-22T12:36:33.679Z,94961.62
2023-05-22T12:37:39.663Z,94965.79
2023-05-22T12:38:45.717Z,94960.52
2023-05-22T12:40:00.902Z,94958.59
2023-05-22T12:41:07.256Z,94959.75
2023-05-22T12:42:13.193Z,94959.91
2023-05-22T12:43:19.281Z,94955.22
2023-05-22T12:44:26.693Z,94955.84
2023-05-22T12:45:32.482Z,94951.97
2023-05-22T12:46:38.685Z,94948.16
2023-05-22T12:47:44.597Z,94954.13
2023-05-22T12:48:50.735Z,94951.89
2023-05-22T12:49:56.821Z,94947.19
2023-05-22T12:51:03.036Z,94947.85
2023-05-22T12:52:09.498Z,94941.52
2023-05-22T12:53:15.718Z,94950.45
2023-05-22T12:54:21.916Z,94953.09
2023-05-22T12:55:28.263Z,94950.82
2023-05-22T12:56:34.160Z,94951.17
2023-05-22T12:57:41.001Z,94950.73
2023-05-22T12:58:46.905Z,94950.25
2023-05-22T12:59:52.733Z,94952.67
2023-05-22T13:00:59.019Z,94947.04
2023-05-22T13:02:06.156Z,94947.11
2023-05-22T13:03:13.490Z,94946.02
2023-05-22T13:04:20.656Z,94948.83
2023-05-22T13:05:26.626Z,94951.88
2023-05-22T13:06:32.549Z,94953.08
2023-05-22T13:07:39.295Z,94950.06
2023-05-22T13:08:45.032Z,94948.27
2023-05-22T13:09:51.979Z,94945.44
2023-05-22T13:10:58.275Z,94947.14
2023-05-22T13:12:05.061Z,94944.93
2023-05-22T13:13:12.091Z,94946.12
2023-05-22T13:14:18.574Z,94939.68
2023-05-22T13:15:31.262Z,94937.23
2023-05-22T13:16:37.758Z,94938.14
2023-05-22T13:17:47.980Z,94938.36
2023-05-22T13:18:54.435Z,94931.66
2023-05-22T13:20:01.053Z,94934.31
2023-05-22T13:21:07.558Z,94937.35
2023-05-22T13:22:15.156Z,94937.02
2023-05-22T13:23:21.105Z,94931.02
2023-05-22T13:24:27.212Z,94930.48
2023-05-22T13:25:33.535Z,94938.38